createdAt,value
2023-02-23T00:01:19.910Z,88.81
2023-02-23T00:04:00.231Z,88.46
2023-02-23T00:06:36.739Z,89.59
2023-02-23T00:09:13.512Z,89.54
2023-02-23T00:11:43.317Z,89.63
2023-02-23T00:14:15.546Z,89.63
2023-02-23T00:16:51.072Z,89.80
2023-02-23T00:19:24.986Z,89.67
2023-02-23T00:22:01.903Z,89.37
2023-02-23T00:24:38.862Z,89.96
2023-02-23T00:27:13.501Z,90.41
2023-02-23T00:29:43.980Z,89.94
2023-02-23T00:32:15.666Z,90.24
2023-02-23T00:34:45.082Z,88.59
2023-02-23T00:37:15.797Z,89.01
2023-02-23T00:39:46.209Z,90.17
2023-02-23T00:42:16.905Z,90.07
2023-02-23T00:44:49.346Z,90.83
2023-02-23T00:47:23.888Z,91.28
2023-02-23T00:49:57.950Z,91.45
2023-02-23T00:52:33.007Z,91.12
2023-02-23T00:55:07.647Z,91.04
2023-02-23T00:57:44.431Z,91.11
2023-02-23T01:00:28.749Z,90.75
2023-02-23T01:02:59.982Z,91.52
2023-02-23T01:05:32.242Z,90.80
2023-02-23T01:08:09.599Z,91.22
2023-02-23T01:10:46.900Z,91.54
2023-02-23T01:13:18.533Z,90.93
2023-02-23T01:15:49.133Z,90.92
2023-02-23T01:18:20.053Z,90.95
2023-02-23T01:20:52.183Z,90.30
2023-02-23T01:23:27.001Z,90.53
2023-02-23T01:25:57.421Z,91.18
2023-02-23T01:28:33.551Z,91.33
2023-02-23T01:31:03.033Z,92.07
2023-02-23T01:33:34.304Z,92.23
2023-02-23T01:36:03.848Z,92.66
2023-02-23T01:38:37.315Z,92.63
2023-02-23T01:41:11.439Z,91.98
2023-02-23T01:44:07.493Z,91.83
2023-02-23T01:46:40.114Z,91.90
2023-02-23T01:49:11.971Z,92.50
2023-02-23T01:51:44.417Z,91.82
2023-02-23T01:54:20.477Z,91.58
2023-02-23T01:56:58.424Z,92.24
2023-02-23T01:59:35.291Z,92.53
2023-02-23T02:02:09.104Z,92.24
2023-02-23T02:04:52.435Z,92.61
2023-02-23T02:07:26.298Z,92.35
2023-02-23T02:10:15.309Z,92.34
2023-02-23T02:12:54.300Z,92.23
2023-02-23T02:15:27.687Z,93.12
2023-02-23T02:18:03.440Z,92.33
2023-02-23T02:20:55.134Z,92.94
2023-02-23T02:24:09.563Z,93.12
2023-02-23T02:27:03.298Z,93.72
2023-02-23T02:30:14.091Z,92.67
2023-02-23T02:33:32.206Z,92.24
2023-02-23T02:36:27.122Z,93.15
2023-02-23T02:39:35.980Z,92.58
2023-02-23T02:42:15.168Z,92.84
2023-02-23T02:44:59.371Z,92.98
2023-02-23T02:47:33.120Z,93.23
2023-02-23T02:50:18.045Z,93.76
2023-02-23T02:52:54.887Z,93.08
2023-02-23T02:55:42.387Z,93.20
2023-02-23T02:58:16.217Z,92.17
2023-02-23T03:01:07.292Z,92.53
2023-02-23T03:03:57.700Z,93.88
2023-02-23T03:06:49.741Z,93.22
2023-02-23T03:09:46.917Z,92.73
2023-02-23T03:12:53.156Z,92.89
2023-02-23T03:16:19.159Z,92.81
2023-02-23T03:19:17.145Z,93.04
2023-02-23T03:22:08.234Z,93.50
2023-02-23T03:25:05.677Z,93.20
2023-02-23T03:28:04.171Z,94.10
2023-02-23T03:31:01.247Z,93.61
2023-02-23T03:33:58.535Z,93.79
2023-02-23T03:36:47.201Z,93.63
2023-02-23T03:39:43.180Z,94.53
2023-02-23T03:42:37.998Z,94.08
2023-02-23T03:45:30.235Z,93.74
2023-02-23T03:48:19.909Z,93.58
2023-02-23T03:51:13.599Z,94.01
2023-02-23T03:54:07.892Z,93.11
2023-02-23T03:56:59.215Z,92.39
2023-02-23T03:59:50.236Z,92.94
2023-02-23T04:02:42.420Z,93.58
2023-02-23T04:05:34.206Z,92.74
2023-02-23T04:08:28.478Z,93.84
2023-02-23T04:11:25.230Z,92.75
2023-02-23T04:14:02.792Z,93.31
2023-02-23T04:16:32.629Z,92.81
2023-02-23T04:19:16.201Z,92.03
2023-02-23T04:21:44.571Z,93.19
2023-02-23T04:24:21.055Z,92.82
2023-02-23T04:26:52.631Z,92.50
2023-02-23T04:29:30.611Z,92.60
2023-02-23T04:32:01.348Z,93.64
2023-02-23T04:34:32.590Z,93.05
2023-02-23T04:37:00.913Z,92.66
2023-02-23T04:39:30.508Z,92.36
2023-02-23T04:42:01.547Z,92.05
2023-02-23T04:44:38.255Z,92.71
2023-02-23T04:47:07.566Z,92.69
2023-02-23T04:49:53.695Z,92.45
2023-02-23T04:52:23.537Z,92.40
2023-02-23T04:54:52.971Z,92.28
2023-02-23T04:57:34.049Z,92.85
2023-02-23T05:00:05.922Z,92.28
2023-02-23T05:02:34.422Z,92.42
2023-02-23T05:05:05.694Z,93.26
2023-02-23T05:07:36.661Z,93.59
2023-02-23T05:10:11.058Z,93.36
2023-02-23T05:12:42.962Z,93.68
2023-02-23T05:15:12.773Z,93.15
2023-02-23T05:17:49.871Z,92.96
2023-02-23T05:20:29.241Z,92.86
2023-02-23T05:23:00.595Z,93.02
2023-02-23T05:25:33.676Z,93.40
2023-02-23T05:28:03.490Z,93.76
2023-02-23T05:30:36.777Z,94.00
2023-02-23T05:33:06.965Z,93.91
2023-02-23T05:35:41.144Z,94.01
2023-02-23T05:38:14.932Z,94.48
2023-02-23T05:40:44.515Z,93.34
2023-02-23T05:43:13.004Z,93.88
2023-02-23T05:45:52.499Z,94.11
2023-02-23T05:48:24.124Z,93.76
2023-02-23T05:51:05.429Z,93.54
2023-02-23T05:53:36.761Z,94.45
2023-02-23T05:56:09.106Z,94.62
2023-02-23T05:58:38.056Z,96.17
2023-02-23T06:01:07.310Z,96.43
2023-02-23T06:03:55.762Z,95.44
2023-02-23T06:06:28.602Z,94.79
2023-02-23T06:08:59.414Z,95.17
2023-02-23T06:11:33.056Z,95.20
2023-02-23T06:14:02.635Z,93.93
2023-02-23T06:16:33.817Z,94.55
2023-02-23T06:19:05.732Z,93.49
2023-02-23T06:21:38.195Z,93.97
2023-02-23T06:24:15.494Z,94.04
2023-02-23T06:26:47.371Z,94.37
2023-02-23T06:29:17.151Z,94.91
2023-02-23T06:31:47.746Z,94.40
2023-02-23T06:34:21.586Z,94.01
2023-02-23T06:36:54.182Z,93.84
2023-02-23T06:39:28.879Z,94.08
2023-02-23T06:41:59.357Z,93.45
2023-02-23T06:44:31.098Z,93.98
2023-02-23T06:47:09.082Z,94.66
2023-02-23T06:49:44.616Z,94.29
2023-02-23T06:52:15.064Z,94.48
2023-02-23T06:54:43.426Z,94.70
2023-02-23T06:57:11.799Z,95.12
2023-02-23T06:59:43.583Z,93.67
2023-02-23T07:02:19.936Z,93.61
2023-02-23T07:04:49.328Z,94.02
2023-02-23T07:07:27.242Z,93.69
2023-02-23T07:09:57.610Z,93.50
2023-02-23T07:12:28.432Z,93.12
2023-02-23T07:15:03.163Z,93.33
2023-02-23T07:17:33.776Z,92.66
2023-02-23T07:20:10.251Z,94.24
2023-02-23T07:22:42.716Z,94.44
2023-02-23T07:25:16.743Z,95.27
2023-02-23T07:27:48.652Z,94.94
2023-02-23T07:30:19.840Z,95.03
2023-02-23T07:32:49.034Z,94.92
2023-02-23T07:35:19.884Z,95.03
2023-02-23T07:38:00.165Z,95.88
2023-02-23T07:40:29.634Z,94.95
2023-02-23T07:43:08.071Z,95.02
2023-02-23T07:45:36.583Z,95.22
2023-02-23T07:48:16.437Z,95.53
2023-02-23T07:50:50.064Z,95.01
2023-02-23T07:53:22.380Z,94.01
2023-02-23T07:55:57.409Z,93.79
2023-02-23T07:58:26.759Z,94.67
2023-02-23T08:00:57.041Z,94.26
2023-02-23T08:03:26.312Z,93.62
2023-02-23T08:05:59.883Z,93.89
2023-02-23T08:08:41.508Z,92.16
2023-02-23T08:11:25.048Z,92.93
2023-02-23T08:14:02.186Z,91.18
2023-02-23T08:16:42.779Z,90.96
2023-02-23T08:19:14.799Z,90.41
2023-02-23T08:21:46.599Z,89.26
2023-02-23T08:24:24.146Z,87.20
2023-02-23T08:26:55.933Z,87.63
2023-02-23T08:29:24.668Z,87.51
2023-02-23T08:31:56.332Z,87.39
2023-02-23T08:34:26.548Z,86.57
2023-02-23T08:36:54.614Z,86.04
2023-02-23T08:39:28.883Z,87.08
2023-02-23T08:42:00.570Z,86.86
2023-02-23T08:44:39.362Z,85.92
2023-02-23T08:47:16.537Z,85.88
2023-02-23T08:49:48.597Z,85.39
2023-02-23T08:52:18.296Z,86.07
2023-02-23T08:54:50.997Z,85.94
2023-02-23T08:57:28.019Z,87.55
2023-02-23T08:59:58.413Z,88.12
2023-02-23T09:02:32.760Z,86.01
2023-02-23T09:05:01.235Z,85.86
2023-02-23T09:07:32.772Z,85.19
2023-02-23T09:10:02.872Z,85.18
2023-02-23T09:12:34.548Z,84.50
2023-02-23T09:15:06.321Z,84.26
2023-02-23T09:17:45.014Z,84.09
2023-02-23T09:20:19.906Z,83.84
2023-02-23T09:22:50.811Z,83.99
2023-02-23T09:25:26.016Z,84.48
2023-02-23T09:27:58.405Z,84.62
2023-02-23T09:30:28.741Z,84.85
2023-02-23T09:32:58.795Z,86.26
2023-02-23T09:35:30.096Z,85.68
2023-02-23T09:38:06.199Z,84.89
2023-02-23T09:40:49.119Z,84.20
2023-02-23T09:43:27.319Z,82.99
2023-02-23T09:46:02.038Z,82.37
2023-02-23T09:48:41.648Z,83.40
2023-02-23T09:51:23.699Z,82.47
2023-02-23T09:54:00.085Z,82.24
2023-02-23T09:56:40.298Z,82.85
2023-02-23T09:59:20.776Z,83.90
2023-02-23T10:02:23.033Z,84.38
2023-02-23T10:04:57.389Z,83.29
2023-02-23T10:07:30.636Z,83.87
2023-02-23T10:10:12.000Z,83.05
2023-02-23T10:12:48.394Z,83.28
2023-02-23T10:15:32.400Z,82.96
2023-02-23T10:18:06.722Z,82.40
2023-02-23T10:20:44.083Z,82.27
2023-02-23T10:23:16.788Z,82.57
2023-02-23T10:25:49.961Z,82.08
2023-02-23T10:28:31.118Z,81.73
2023-02-23T10:31:01.896Z,81.62
2023-02-23T10:33:45.215Z,80.10
2023-02-23T10:36:23.217Z,79.51
2023-02-23T10:38:54.093Z,79.76
2023-02-23T10:41:31.228Z,78.84
2023-02-23T10:44:15.653Z,78.15
2023-02-23T10:46:47.936Z,79.18
2023-02-23T10:49:24.840Z,79.01
2023-02-23T10:51:58.195Z,78.48
2023-02-23T10:54:45.794Z,77.47
2023-02-23T10:57:20.501Z,77.38
2023-02-23T11:00:11.862Z,76.47
2023-02-23T11:02:42.421Z,76.41
2023-02-23T11:05:32.397Z,75.99
2023-02-23T11:08:25.155Z,76.25
2023-02-23T11:11:17.164Z,75.56
2023-02-23T11:13:48.811Z,76.29
2023-02-23T11:16:23.512Z,76.64
2023-02-23T11:18:58.151Z,76.84
2023-02-23T11:21:35.723Z,77.87
2023-02-23T11:24:16.515Z,77.42
2023-02-23T11:26:54.935Z,77.76
2023-02-23T11:29:27.326Z,76.41
2023-02-23T11:32:10.180Z,75.67
2023-02-23T11:34:53.713Z,73.67
2023-02-23T11:37:23.760Z,71.81
2023-02-23T11:39:53.696Z,71.14
2023-02-23T11:42:33.510Z,71.38
2023-02-23T11:45:04.868Z,71.12
2023-02-23T11:47:49.952Z,71.46
2023-02-23T11:50:25.425Z,71.54
2023-02-23T11:53:01.769Z,71.73
2023-02-23T11:55:41.274Z,71.45
2023-02-23T11:58:27.021Z,69.92
2023-02-23T12:00:57.825Z,69.23
2023-02-23T12:03:44.548Z,68.47
2023-02-23T12:06:23.103Z,69.54
2023-02-23T12:08:55.743Z,69.49
2023-02-23T12:11:29.853Z,69.36
2023-02-23T12:14:06.799Z,68.28
2023-02-23T12:16:45.414Z,68.65
2023-02-23T12:19:31.956Z,68.18
2023-02-23T12:22:09.462Z,68.35
2023-02-23T12:24:51.447Z,68.21
2023-02-23T12:27:24.342Z,68.25
2023-02-23T12:30:08.442Z,68.64
2023-02-23T12:32:51.375Z,69.26
2023-02-23T12:35:29.550Z,69.33
2023-02-23T12:38:04.239Z,69.38
2023-02-23T12:40:44.337Z,69.44
2023-02-23T12:43:24.890Z,68.92
2023-02-23T12:45:56.207Z,69.04
2023-02-23T12:48:34.811Z,67.74
2023-02-23T12:51:14.285Z,68.00
2023-02-23T12:53:55.442Z,68.03
2023-02-23T12:56:39.579Z,68.26
2023-02-23T12:59:19.194Z,68.20
2023-02-23T13:01:58.326Z,68.09
2023-02-23T13:05:13.302Z,66.58
2023-02-23T13:07:52.769Z,66.71
2023-02-23T13:10:33.392Z,67.15
2023-02-23T13:13:12.837Z,66.58
2023-02-23T13:15:52.988Z,66.87
2023-02-23T13:18:27.724Z,66.79
2023-02-23T13:21:07.654Z,67.49
2023-02-23T13:23:42.966Z,67.01
2023-02-23T13:26:24.938Z,67.75
2023-02-23T13:28:58.845Z,67.85
2023-02-23T13:31:30.662Z,68.60
2023-02-23T13:34:02.160Z,69.14
2023-02-23T13:36:41.333Z,69.22
2023-02-23T13:39:39.729Z,69.57
2023-02-23T13:42:38.316Z,69.04
2023-02-23T13:45:48.659Z,69.41
2023-02-23T13:48:47.330Z,69.97
2023-02-23T13:51:32.239Z,69.63
2023-02-23T13:54:02.887Z,69.39
2023-02-23T13:56:44.100Z,69.68
2023-02-23T13:59:21.970Z,69.36
2023-02-23T14:01:54.304Z,69.49
2023-02-23T14:04:33.570Z,69.18
2023-02-23T14:07:06.893Z,69.06
2023-02-23T14:09:40.142Z,68.65
2023-02-23T14:12:31.806Z,68.56
2023-02-23T14:15:45.340Z,68.53
2023-02-23T14:18:32.952Z,68.50
2023-02-23T14:21:09.734Z,67.89
2023-02-23T14:24:18.780Z,68.01
2023-02-23T14:27:40.370Z,66.86
2023-02-23T14:30:50.039Z,67.15
2023-02-23T14:33:50.400Z,67.00
2023-02-23T14:36:46.908Z,66.79
2023-02-23T14:39:29.137Z,66.58
2023-02-23T14:42:03.104Z,66.17
2023-02-23T14:44:36.715Z,66.31
2023-02-23T14:47:15.943Z,66.15
2023-02-23T14:49:50.276Z,66.42
2023-02-23T14:52:27.972Z,66.78
2023-02-23T14:55:19.805Z,66.60
2023-02-23T14:57:56.480Z,67.23
2023-02-23T15:00:28.254Z,67.37
2023-02-23T15:03:09.273Z,67.11
2023-02-23T15:05:53.724Z,67.32
2023-02-23T15:08:25.688Z,68.12
2023-02-23T15:11:05.539Z,68.12
2023-02-23T15:16:09.058Z,68.51
2023-02-23T15:19:31.973Z,68.94
2023-02-23T15:22:28.891Z,68.78
2023-02-23T15:25:01.673Z,70.19
2023-02-23T15:27:45.196Z,70.17
2023-02-23T15:30:52.506Z,70.30
2023-02-23T15:33:28.883Z,70.77
2023-02-23T15:36:14.525Z,70.37
2023-02-23T15:38:53.020Z,70.42
2023-02-23T15:41:39.507Z,70.45
2023-02-23T15:44:18.942Z,70.52
2023-02-23T15:46:52.976Z,70.28
2023-02-23T15:49:24.785Z,71.02
2023-02-23T15:52:05.646Z,70.95
2023-02-23T15:55:00.780Z,70.97
2023-02-23T15:57:33.093Z,71.42
2023-02-23T16:00:14.387Z,71.40
2023-02-23T16:02:52.206Z,72.25
2023-02-23T16:05:25.710Z,71.88
2023-02-23T16:08:07.089Z,71.75
2023-02-23T16:10:51.305Z,72.18
2023-02-23T16:13:25.055Z,72.79
2023-02-23T16:15:56.415Z,72.83
2023-02-23T16:18:38.549Z,72.85
2023-02-23T16:21:23.529Z,73.03
2023-02-23T16:23:56.579Z,73.28
2023-02-23T16:26:52.982Z,72.92
2023-02-23T16:29:31.318Z,73.44
2023-02-23T16:32:03.541Z,73.07
2023-02-23T16:34:37.648Z,72.61
2023-02-23T16:37:20.306Z,73.03
2023-02-23T16:40:02.571Z,73.17
2023-02-23T16:42:41.254Z,73.22
2023-02-23T16:45:21.643Z,73.49
2023-02-23T16:48:02.772Z,73.77
2023-02-23T16:50:41.816Z,73.68
2023-02-23T16:53:24.377Z,73.45
2023-02-23T16:56:12.582Z,73.50
2023-02-23T16:58:52.116Z,73.37
2023-02-23T17:01:26.350Z,73.54
2023-02-23T17:03:59.679Z,73.33
2023-02-23T17:06:31.236Z,73.70
2023-02-23T17:09:10.038Z,72.78
2023-02-23T17:11:41.068Z,73.03
2023-02-23T17:14:27.547Z,72.67
2023-02-23T17:17:10.893Z,73.11
2023-02-23T17:19:53.888Z,73.02
2023-02-23T17:22:33.367Z,72.11
2023-02-23T17:25:03.285Z,72.21
2023-02-23T17:28:04.613Z,72.57
2023-02-23T17:30:46.108Z,73.15
2023-02-23T17:33:19.492Z,72.69
2023-02-23T17:35:56.069Z,72.86
2023-02-23T17:38:37.130Z,73.30
2023-02-23T17:41:12.942Z,72.38
2023-02-23T17:43:45.877Z,73.41
2023-02-23T17:46:18.387Z,72.79
2023-02-23T17:48:50.703Z,72.74
2023-02-23T17:51:25.410Z,72.16
2023-02-23T17:54:16.617Z,72.73
2023-02-23T17:56:55.128Z,73.05
2023-02-23T17:59:29.935Z,72.91
2023-02-23T18:02:22.919Z,72.38
2023-02-23T18:04:54.937Z,72.23
2023-02-23T18:07:30.345Z,71.59
2023-02-23T18:10:05.636Z,72.40
2023-02-23T18:12:53.078Z,73.13
2023-02-23T18:15:32.193Z,73.24
2023-02-23T18:18:30.486Z,72.56
2023-02-23T18:21:03.911Z,73.12
2023-02-23T18:23:36.690Z,73.21
2023-02-23T18:26:14.444Z,72.63
2023-02-23T18:28:47.133Z,72.54
2023-02-23T18:31:24.003Z,72.38
2023-02-23T18:34:25.216Z,72.36
2023-02-23T18:36:59.127Z,72.57
2023-02-23T18:39:32.012Z,72.93
2023-02-23T18:42:03.256Z,72.92
2023-02-23T18:44:44.693Z,72.58
2023-02-23T18:47:18.831Z,72.53
2023-02-23T18:49:52.917Z,72.79
2023-02-23T18:52:34.708Z,73.23
2023-02-23T18:55:11.502Z,72.43
2023-02-23T18:57:57.296Z,73.28
2023-02-23T19:00:35.436Z,72.90
2023-02-23T19:03:22.289Z,73.65
2023-02-23T19:05:59.836Z,73.25
2023-02-23T19:08:42.952Z,73.46
2023-02-23T19:11:24.903Z,73.76
2023-02-23T19:14:01.579Z,73.42
2023-02-23T19:16:47.160Z,73.80
2023-02-23T19:19:27.557Z,74.53
2023-02-23T19:22:25.195Z,74.83
2023-02-23T19:25:04.103Z,75.01
2023-02-23T19:27:43.898Z,75.02
2023-02-23T19:30:24.200Z,74.99
2023-02-23T19:33:03.039Z,74.59
2023-02-23T19:35:38.987Z,74.89
2023-02-23T19:38:37.590Z,73.95
2023-02-23T19:41:17.276Z,74.27
2023-02-23T19:43:47.723Z,74.70
2023-02-23T19:46:25.798Z,75.22
2023-02-23T19:49:01.063Z,75.32
2023-02-23T19:51:40.426Z,75.01
2023-02-23T19:54:14.859Z,75.15
2023-02-23T19:56:45.901Z,74.91
2023-02-23T19:59:17.504Z,75.22
2023-02-23T20:01:54.670Z,75.80
2023-02-23T20:04:29.129Z,75.61
2023-02-23T20:07:13.869Z,75.87
2023-02-23T20:10:11.182Z,75.34
2023-02-23T20:12:59.794Z,75.07
2023-02-23T20:15:45.761Z,75.47
2023-02-23T20:18:19.064Z,75.05
2023-02-23T20:21:02.842Z,74.99
2023-02-23T20:23:39.948Z,74.96
2023-02-23T20:26:31.318Z,75.34
2023-02-23T20:29:13.638Z,75.16
2023-02-23T20:31:53.528Z,75.54
2023-02-23T20:37:32.120Z,75.28
2023-02-23T20:40:11.153Z,75.28
2023-02-23T20:42:45.804Z,75.65
2023-02-23T20:45:30.769Z,75.71
2023-02-23T20:48:16.576Z,75.48
2023-02-23T20:50:59.204Z,75.77
2023-02-23T20:53:30.941Z,75.64
2023-02-23T20:56:15.339Z,75.88
2023-02-23T21:01:40.547Z,76.07
2023-02-23T21:04:13.406Z,75.90
2023-02-23T21:06:46.155Z,75.59
2023-02-23T21:09:29.905Z,75.65
2023-02-23T21:12:00.914Z,75.47
2023-02-23T21:14:35.339Z,75.76
2023-02-23T21:17:10.558Z,76.12
2023-02-23T21:19:50.079Z,75.99
2023-02-23T21:22:31.778Z,76.26
2023-02-23T21:25:14.432Z,76.37
2023-02-23T21:27:50.670Z,75.99
2023-02-23T21:30:35.134Z,76.11
2023-02-23T21:33:17.463Z,77.34
2023-02-23T21:35:47.595Z,77.17
2023-02-23T21:38:17.085Z,77.16
2023-02-23T21:40:48.751Z,77.61
2023-02-23T21:43:29.608Z,77.82
2023-02-23T21:46:19.960Z,78.80
2023-02-23T21:48:57.618Z,79.27
2023-02-23T21:51:36.686Z,79.11
2023-02-23T21:54:14.028Z,79.32
2023-02-23T21:56:43.718Z,79.64
2023-02-23T21:59:16.617Z,79.17
2023-02-23T22:01:53.766Z,78.67
2023-02-23T22:04:25.091Z,78.89
2023-02-23T22:06:55.999Z,78.55
2023-02-23T22:09:27.694Z,78.40
2023-02-23T22:12:01.173Z,78.38
2023-02-23T22:14:29.533Z,78.60
2023-02-23T22:17:04.003Z,78.41
2023-02-23T22:19:35.914Z,78.94
2023-02-23T22:22:04.633Z,78.39
2023-02-23T22:24:34.503Z,78.46
2023-02-23T22:27:04.680Z,77.90
2023-02-23T22:29:38.669Z,78.33
2023-02-23T22:32:13.822Z,78.36
2023-02-23T22:34:43.781Z,78.40
2023-02-23T22:37:13.980Z,78.63
2023-02-23T22:39:51.084Z,78.08
2023-02-23T22:42:22.178Z,77.59
2023-02-23T22:44:59.933Z,77.61
2023-02-23T22:47:34.944Z,77.52
2023-02-23T22:50:07.023Z,77.62
2023-02-23T22:52:41.175Z,78.73
2023-02-23T22:55:24.386Z,78.33
2023-02-23T22:57:55.208Z,78.02
2023-02-23T23:00:27.922Z,77.70
2023-02-23T23:03:12.351Z,77.43
2023-02-23T23:05:44.045Z,78.24
2023-02-23T23:08:18.067Z,78.37
2023-02-23T23:10:50.804Z,78.03
2023-02-23T23:13:23.098Z,77.60
2023-02-23T23:15:55.236Z,78.31
2023-02-23T23:18:42.464Z,78.02
2023-02-23T23:21:17.466Z,78.70
2023-02-23T23:23:48.761Z,78.67
2023-02-23T23:26:20.226Z,78.31
2023-02-23T23:28:50.931Z,78.31
2023-02-23T23:31:25.637Z,78.10
2023-02-23T23:34:00.114Z,78.31
2023-02-23T23:36:33.234Z,78.53
2023-02-23T23:39:10.309Z,78.40
2023-02-23T23:41:49.013Z,78.35
2023-02-23T23:44:18.132Z,78.43
2023-02-23T23:46:50.800Z,78.44
2023-02-23T23:49:26.113Z,79.26
2023-02-23T23:51:57.936Z,79.39
2023-02-23T23:54:38.821Z,79.78
2023-02-23T23:57:13.893Z,79.24
2023-02-23T23:59:55.822Z,79.34
